createdAt,value
2018-11-20T13:05:25.404Z,8.43
2018-11-20T13:10:45.167Z,5.37
2018-11-20T13:16:05.824Z,6.67
2018-11-20T13:21:28.179Z,8.93
2018-11-20T13:26:44.580Z,8.87
2018-11-20T13:32:22.119Z,9.20
2018-11-20T13:37:41.521Z,6.90
2018-11-20T13:42:55.690Z,9.33
2018-11-20T13:48:16.721Z,10.10
2018-11-20T13:53:45.930Z,8.10
2018-11-20T13:59:14.857Z,7.53
2018-11-20T14:04:52.703Z,6.60
2018-11-20T14:10:06.211Z,8.57
2018-11-20T14:15:41.174Z,8.70
2018-11-20T14:21:16.026Z,7.43
2018-11-20T14:26:34.830Z,10.57
2018-11-20T14:31:58.723Z,7.20
2018-11-20T14:37:33.539Z,8.57
2018-11-20T14:42:54.455Z,8.30
2018-11-20T14:48:36.394Z,12.13
2018-11-20T14:54:02.105Z,9.57
2018-11-20T14:59:40.071Z,10.23
2018-11-20T15:05:01.881Z,11.57
2018-11-20T15:10:20.816Z,7.60
2018-11-20T15:15:59.997Z,8.80
2018-11-20T15:21:25.944Z,10.57
2018-11-20T15:26:39.836Z,10.03
2018-11-20T15:32:02.188Z,8.90
2018-11-20T15:37:15.205Z,7.90
2018-11-20T15:42:43.329Z,9.60
2018-11-20T15:48:04.162Z,8.27
2018-11-20T15:53:44.516Z,7.93
2018-11-20T15:59:05.638Z,7.23
2018-11-20T16:04:26.678Z,5.60
2018-11-20T16:09:47.510Z,5.87
2018-11-20T16:15:14.470Z,6.47
2018-11-20T16:20:28.338Z,12.50
2018-11-20T16:25:53.031Z,6.07
2018-11-20T16:31:05.284Z,7.83
2018-11-20T16:36:42.868Z,6.80
2018-11-20T16:42:03.406Z,4.20
2018-11-20T16:47:34.238Z,7.00
2018-11-20T16:52:59.780Z,7.40
2018-11-20T16:58:15.281Z,6.53
2018-11-20T17:03:43.205Z,5.73
2018-11-20T17:08:58.366Z,5.00
2018-11-20T17:14:15.592Z,13.40
2018-11-20T17:19:30.168Z,6.70
2018-11-20T17:24:50.473Z,8.60
2018-11-20T17:30:20.499Z,7.93
2018-11-20T17:35:57.973Z,7.63
2018-11-20T17:41:23.183Z,5.83
2018-11-20T17:46:43.990Z,10.43
2018-11-20T17:52:05.120Z,11.70
2018-11-20T17:57:27.176Z,16.53
2018-11-20T18:03:07.866Z,7.10
2018-11-20T18:08:30.846Z,11.50
2018-11-20T18:13:51.242Z,9.17
2018-11-20T18:19:16.278Z,9.63
2018-11-20T18:24:50.426Z,7.07
2018-11-20T18:30:15.239Z,8.73
2018-11-20T18:35:36.763Z,8.33
2018-11-20T18:40:58.818Z,8.57
2018-11-20T18:46:12.075Z,9.43
2018-11-20T18:51:46.347Z,7.93
2018-11-20T18:57:17.564Z,12.50
2018-11-20T19:02:34.403Z,10.30
2018-11-20T19:08:03.136Z,10.70
2018-11-20T19:13:31.797Z,12.57
2018-11-20T19:18:53.568Z,9.73
2018-11-20T19:24:07.716Z,8.33
2018-11-20T19:29:29.709Z,10.23
2018-11-20T19:34:51.336Z,12.73
2018-11-20T19:40:09.156Z,11.63
2018-11-20T19:45:31.634Z,12.47
2018-11-20T19:50:57.919Z,12.90
2018-11-20T19:56:19.903Z,10.33
2018-11-20T20:01:35.252Z,8.53
2018-11-20T20:06:56.258Z,9.73
2018-11-20T20:12:27.945Z,10.50
2018-11-20T20:17:51.527Z,15.60
2018-11-20T20:23:12.800Z,14.80
2018-11-20T20:28:51.139Z,10.50
2018-11-20T20:34:20.126Z,9.53
2018-11-20T20:39:52.872Z,11.27
2018-11-20T20:45:27.662Z,12.73
2018-11-20T20:50:52.991Z,15.23
2018-11-20T20:56:13.329Z,12.50
2018-11-20T21:01:39.017Z,13.63
2018-11-20T21:07:06.898Z,11.87
2018-11-20T21:12:46.787Z,18.20
2018-11-20T21:18:07.515Z,15.73
2018-11-20T21:23:36.742Z,11.90
2018-11-20T21:29:01.370Z,11.93
2018-11-20T21:34:19.103Z,14.10
2018-11-20T21:39:46.477Z,15.13
2018-11-20T21:45:07.707Z,17.40
2018-11-20T21:50:30.042Z,21.20
2018-11-20T21:56:07.375Z,21.27
2018-11-20T22:01:28.507Z,12.97
2018-11-20T22:06:49.424Z,19.37
2018-11-20T22:12:14.544Z,14.90
2018-11-20T22:17:54.625Z,19.47
2018-11-20T22:23:22.924Z,14.37
2018-11-20T22:28:43.530Z,15.97
2018-11-20T22:34:23.601Z,14.10
2018-11-20T22:39:46.069Z,18.13
2018-11-20T22:45:11.168Z,17.73
2018-11-20T22:50:32.825Z,17.63
2018-11-20T22:55:53.553Z,15.83
2018-11-20T23:01:15.910Z,18.57
2018-11-20T23:06:36.498Z,16.47
2018-11-20T23:11:38.679Z,20.33
2018-11-20T23:16:41.338Z,18.67
2018-11-20T23:21:43.804Z,16.97
2018-11-20T23:26:46.638Z,15.73
2018-11-20T23:31:49.812Z,16.20
2018-11-20T23:36:52.796Z,17.77
2018-11-20T23:41:55.513Z,20.30
2018-11-20T23:46:57.908Z,21.77
2018-11-20T23:52:00.468Z,14.53
2018-11-20T23:57:03.047Z,16.93
